createdAt,value
2017-11-28T00:00:36.958Z,0
2017-11-28T00:01:36.949Z,0
2017-11-28T00:02:36.962Z,0
2017-11-28T00:03:36.988Z,0
2017-11-28T00:04:37.028Z,0
2017-11-28T00:05:36.979Z,0
2017-11-28T00:06:36.989Z,0
2017-11-28T00:07:36.963Z,0
2017-11-28T00:08:36.972Z,0
2017-11-28T00:09:37.030Z,0
2017-11-28T00:10:36.963Z,0
2017-11-28T00:11:36.970Z,0
2017-11-28T00:12:36.962Z,0
2017-11-28T00:13:36.976Z,0
2017-11-28T00:14:37.035Z,0
2017-11-28T00:15:36.974Z,0
2017-11-28T00:16:37.040Z,0
2017-11-28T00:17:36.973Z,0
2017-11-28T00:18:37.039Z,0
2017-11-28T00:19:36.971Z,0
2017-11-28T00:20:37.037Z,0
2017-11-28T00:21:37.040Z,0
2017-11-28T00:22:37.040Z,0
2017-11-28T00:23:36.925Z,0
2017-11-28T00:24:36.979Z,0
2017-11-28T00:25:36.982Z,0
2017-11-28T00:26:37.048Z,0
2017-11-28T00:27:36.977Z,0
2017-11-28T00:28:37.060Z,0
2017-11-28T00:29:37.044Z,0
2017-11-28T00:30:36.973Z,0
2017-11-28T00:31:36.976Z,0
2017-11-28T00:32:37.044Z,0
2017-11-28T00:33:36.978Z,0
2017-11-28T00:34:36.978Z,0
2017-11-28T00:35:36.982Z,0
2017-11-28T00:36:37.046Z,0
2017-11-28T00:37:36.984Z,0
2017-11-28T00:38:36.984Z,0
2017-11-28T00:39:36.937Z,0
2017-11-28T00:40:37.010Z,0
2017-11-28T00:41:36.984Z,0
2017-11-28T00:42:37.054Z,0
2017-11-28T00:43:36.983Z,0
2017-11-28T00:44:37.052Z,0
2017-11-28T00:45:36.985Z,0
2017-11-28T00:46:37.068Z,0
2017-11-28T00:47:36.983Z,0
2017-11-28T00:48:37.058Z,0
2017-11-28T00:49:36.990Z,0
2017-11-28T00:50:37.056Z,0
2017-11-28T00:51:36.993Z,0
2017-11-28T00:52:36.990Z,0
2017-11-28T00:53:36.994Z,0
2017-11-28T00:54:36.989Z,0
2017-11-28T00:55:37.066Z,0
2017-11-28T00:56:36.996Z,0
2017-11-28T00:57:36.995Z,0
2017-11-28T00:58:36.997Z,0
2017-11-28T00:59:37.061Z,0
2017-11-28T01:00:37.065Z,0
2017-11-28T01:01:36.997Z,0
2017-11-28T01:02:37.087Z,0
2017-11-28T01:03:36.958Z,0
2017-11-28T01:04:36.971Z,0
2017-11-28T01:05:37.049Z,0
2017-11-28T01:06:37.014Z,0
2017-11-28T01:07:36.948Z,0
2017-11-28T01:08:36.994Z,0
2017-11-28T01:09:37.017Z,0
2017-11-28T01:10:37.129Z,0
2017-11-28T01:11:36.973Z,0
2017-11-28T01:12:37.024Z,0
2017-11-28T01:13:37.057Z,0
2017-11-28T01:14:37.074Z,0
2017-11-28T01:15:37.002Z,0
2017-11-28T01:16:37.074Z,0
2017-11-28T01:17:37.004Z,0
2017-11-28T01:18:37.145Z,0
2017-11-28T01:19:37.010Z,0
2017-11-28T01:20:37.004Z,0
2017-11-28T01:21:37.012Z,0
2017-11-28T01:22:37.097Z,0
2017-11-28T01:23:37.009Z,0
2017-11-28T01:24:37.079Z,0
2017-11-28T01:25:37.081Z,0
2017-11-28T01:26:37.078Z,0
2017-11-28T01:27:37.011Z,0
2017-11-28T01:28:37.078Z,0
2017-11-28T01:29:37.015Z,0
2017-11-28T01:30:37.011Z,0
2017-11-28T01:31:37.088Z,0
2017-11-28T01:32:37.081Z,0
2017-11-28T01:33:37.015Z,0
2017-11-28T01:34:37.017Z,0
2017-11-28T01:35:37.082Z,0
2017-11-28T01:36:37.023Z,0
2017-11-28T01:37:37.083Z,0
2017-11-28T01:38:37.017Z,0
2017-11-28T01:39:37.085Z,0
2017-11-28T01:40:37.021Z,0
2017-11-28T01:41:37.087Z,0
2017-11-28T01:42:37.017Z,0
2017-11-28T01:43:37.036Z,0
2017-11-28T01:44:36.989Z,0
2017-11-28T01:45:36.998Z,0
2017-11-28T01:46:37.063Z,0
2017-11-28T01:47:37.026Z,0
2017-11-28T01:48:36.971Z,0
2017-11-28T01:49:37.063Z,0
2017-11-28T01:50:37.107Z,0
2017-11-28T01:51:36.977Z,0
2017-11-28T01:52:37.098Z,0
2017-11-28T01:53:37.081Z,0
2017-11-28T01:54:37.030Z,0
2017-11-28T01:55:37.096Z,0
2017-11-28T01:56:37.032Z,0
2017-11-28T01:57:37.095Z,0
2017-11-28T01:58:37.032Z,0
2017-11-28T01:59:37.099Z,0
2017-11-28T02:00:37.101Z,0
2017-11-28T02:01:37.105Z,0
2017-11-28T02:02:37.100Z,0
2017-11-28T02:03:37.035Z,0
2017-11-28T02:04:37.034Z,0
2017-11-28T02:05:37.032Z,0
2017-11-28T02:06:37.134Z,0
2017-11-28T02:07:37.034Z,0
2017-11-28T02:08:37.061Z,0
2017-11-28T02:09:37.102Z,0
2017-11-28T02:10:37.038Z,0
2017-11-28T02:11:37.125Z,0
2017-11-28T02:12:37.103Z,0
2017-11-28T02:13:37.041Z,0
2017-11-28T02:14:37.108Z,0
2017-11-28T02:15:37.041Z,0
2017-11-28T02:16:37.119Z,0
2017-11-28T02:17:37.048Z,0
2017-11-28T02:18:37.041Z,0
2017-11-28T02:19:37.044Z,0
2017-11-28T02:20:37.052Z,0
2017-11-28T02:21:37.113Z,0
2017-11-28T02:22:37.043Z,0
2017-11-28T02:23:37.114Z,0
2017-11-28T02:24:36.974Z,0
2017-11-28T02:25:36.999Z,0
2017-11-28T02:26:37.015Z,0
2017-11-28T02:27:37.101Z,0
2017-11-28T02:28:37.082Z,0
2017-11-28T02:29:36.980Z,0
2017-11-28T02:30:37.109Z,0
2017-11-28T02:31:37.111Z,0
2017-11-28T02:32:37.102Z,0
2017-11-28T02:33:37.070Z,0
2017-11-28T02:34:37.053Z,0
2017-11-28T02:35:37.130Z,0
2017-11-28T02:36:37.055Z,0
2017-11-28T02:37:37.124Z,0
2017-11-28T02:38:37.054Z,0
2017-11-28T02:39:37.056Z,0
2017-11-28T02:40:37.060Z,0
2017-11-28T02:41:37.132Z,0
2017-11-28T02:42:37.125Z,0
2017-11-28T02:43:37.063Z,0
2017-11-28T02:44:37.124Z,0
2017-11-28T02:45:37.062Z,0
2017-11-28T02:46:37.149Z,0
2017-11-28T02:47:37.057Z,0
2017-11-28T02:48:37.129Z,0
2017-11-28T02:49:37.063Z,0
2017-11-28T02:50:37.128Z,0
2017-11-28T02:51:37.066Z,0
2017-11-28T02:52:37.134Z,0
2017-11-28T02:53:37.068Z,0
2017-11-28T02:54:37.140Z,0
2017-11-28T02:55:37.070Z,0
2017-11-28T02:56:37.132Z,0
2017-11-28T02:57:37.132Z,0
2017-11-28T02:58:37.068Z,0
2017-11-28T02:59:37.137Z,0
2017-11-28T03:00:37.093Z,0
2017-11-28T03:01:37.142Z,0
2017-11-28T03:02:37.067Z,0
2017-11-28T03:03:37.068Z,0
2017-11-28T03:04:37.135Z,0
2017-11-28T03:05:37.094Z,0
2017-11-28T03:06:37.068Z,0
2017-11-28T03:07:37.070Z,0
2017-11-28T03:08:37.139Z,0
2017-11-28T03:09:37.077Z,0
2017-11-28T03:10:37.138Z,0
2017-11-28T03:11:37.080Z,0
2017-11-28T03:12:37.075Z,0
2017-11-28T03:13:37.141Z,0
2017-11-28T03:14:37.082Z,0
2017-11-28T03:15:37.102Z,0
2017-11-28T03:16:37.007Z,0
2017-11-28T03:17:37.081Z,0
2017-11-28T03:18:37.105Z,0
2017-11-28T03:19:37.100Z,0
2017-11-28T03:20:37.101Z,0
2017-11-28T03:21:37.005Z,0
2017-11-28T03:22:37.056Z,0
2017-11-28T03:23:37.020Z,0
2017-11-28T03:24:37.104Z,0
2017-11-28T03:25:37.150Z,0
2017-11-28T03:26:37.089Z,0
2017-11-28T03:27:37.173Z,0
2017-11-28T03:28:37.092Z,0
2017-11-28T03:29:37.151Z,0
2017-11-28T03:30:37.091Z,0
2017-11-28T03:31:37.154Z,0
2017-11-28T03:32:37.092Z,0
2017-11-28T03:33:37.085Z,0
2017-11-28T03:34:37.156Z,0
2017-11-28T03:35:37.110Z,0
2017-11-28T03:36:37.039Z,0
2017-11-28T03:37:37.024Z,0
2017-11-28T03:38:37.156Z,0
2017-11-28T03:39:37.091Z,0
2017-11-28T03:40:37.063Z,0
2017-11-28T03:41:37.142Z,0
2017-11-28T03:42:37.153Z,0
2017-11-28T03:43:37.153Z,0
2017-11-28T03:44:37.151Z,0
2017-11-28T03:45:37.164Z,0
2017-11-28T03:46:37.162Z,0
2017-11-28T03:47:37.122Z,0
2017-11-28T03:48:37.199Z,0
2017-11-28T03:49:37.164Z,0
2017-11-28T03:50:37.097Z,0
2017-11-28T03:51:37.169Z,0
2017-11-28T03:52:37.165Z,0
2017-11-28T03:53:37.165Z,0
2017-11-28T03:54:37.105Z,0
2017-11-28T03:55:37.167Z,0
2017-11-28T03:56:37.128Z,0
2017-11-28T03:57:37.169Z,0
2017-11-28T03:58:37.169Z,0
2017-11-28T03:59:37.097Z,0
2017-11-28T04:00:37.171Z,0
2017-11-28T04:01:37.128Z,0
2017-11-28T04:02:37.174Z,0
2017-11-28T04:03:37.104Z,0
2017-11-28T04:04:37.204Z,0
2017-11-28T04:05:37.172Z,0
2017-11-28T04:06:37.109Z,0
2017-11-28T04:07:37.177Z,0
2017-11-28T04:08:37.111Z,0
2017-11-28T04:09:37.175Z,0
2017-11-28T04:10:37.105Z,0
2017-11-28T04:11:37.179Z,0
2017-11-28T04:12:37.176Z,0
2017-11-28T04:13:37.180Z,0
2017-11-28T04:14:37.113Z,0
2017-11-28T04:15:37.142Z,0
2017-11-28T04:16:37.161Z,0
2017-11-28T04:17:37.113Z,0
2017-11-28T04:18:37.101Z,0
2017-11-28T04:19:37.071Z,0
2017-11-28T04:20:37.078Z,0
2017-11-28T04:21:37.070Z,0
2017-11-28T04:22:37.078Z,0
2017-11-28T04:23:37.138Z,0
2017-11-28T04:24:37.051Z,0
2017-11-28T04:25:37.049Z,0
2017-11-28T04:26:37.183Z,0
2017-11-28T04:27:37.126Z,0
2017-11-28T04:28:37.132Z,0
2017-11-28T04:29:37.066Z,0
2017-11-28T04:30:37.177Z,0
2017-11-28T04:31:37.138Z,0
2017-11-28T04:32:37.073Z,0
2017-11-28T04:33:37.196Z,0
2017-11-28T04:34:37.068Z,0
2017-11-28T04:35:37.153Z,0
2017-11-28T04:36:37.155Z,0
2017-11-28T04:37:37.143Z,0
2017-11-28T04:38:37.114Z,0
2017-11-28T04:39:37.157Z,0
2017-11-28T04:40:37.171Z,0
2017-11-28T04:41:37.148Z,0
2017-11-28T04:42:37.145Z,0
2017-11-28T04:43:37.100Z,0
2017-11-28T04:44:37.069Z,0
2017-11-28T04:45:37.154Z,0
2017-11-28T04:46:37.182Z,0
2017-11-28T04:47:37.122Z,0
2017-11-28T04:48:37.146Z,0
2017-11-28T04:49:37.106Z,0
2017-11-28T04:50:37.059Z,0
2017-11-28T04:51:37.083Z,0
2017-11-28T04:52:37.089Z,0
2017-11-28T04:53:37.185Z,0
2017-11-28T04:54:37.062Z,0
2017-11-28T04:55:37.134Z,0
2017-11-28T04:56:37.204Z,0
2017-11-28T04:57:37.203Z,0
2017-11-28T04:58:37.206Z,0
2017-11-28T04:59:37.138Z,0
2017-11-28T05:00:37.226Z,0
2017-11-28T05:01:37.206Z,0
2017-11-28T05:02:37.208Z,0
2017-11-28T05:03:37.145Z,0
2017-11-28T05:04:37.213Z,0
2017-11-28T05:05:37.022Z,0
2017-11-28T05:06:37.067Z,0
2017-11-28T05:07:37.087Z,0
2017-11-28T05:08:37.119Z,0
2017-11-28T05:09:37.137Z,0
2017-11-28T05:10:37.092Z,0
2017-11-28T05:11:37.117Z,0
2017-11-28T05:12:37.075Z,0
2017-11-28T05:13:37.140Z,0
2017-11-28T05:14:37.147Z,0
2017-11-28T05:15:37.152Z,0
2017-11-28T05:16:37.223Z,0
2017-11-28T05:17:37.147Z,0
2017-11-28T05:18:37.216Z,0
2017-11-28T05:19:37.151Z,0
2017-11-28T05:20:37.220Z,0
2017-11-28T05:21:37.152Z,0
2017-11-28T05:22:37.224Z,0
2017-11-28T05:23:37.156Z,0
2017-11-28T05:24:37.256Z,0
2017-11-28T05:25:37.209Z,0
2017-11-28T05:26:37.207Z,0
2017-11-28T05:27:37.192Z,0
2017-11-28T05:28:37.151Z,0
2017-11-28T05:29:37.127Z,0
2017-11-28T05:30:37.210Z,0
2017-11-28T05:31:37.191Z,0
2017-11-28T05:32:37.179Z,0
2017-11-28T05:33:37.133Z,0
2017-11-28T05:34:37.093Z,0
2017-11-28T05:35:37.161Z,0
2017-11-28T05:36:37.228Z,0
2017-11-28T05:37:37.165Z,0
2017-11-28T05:38:37.235Z,0
2017-11-28T05:39:37.166Z,0
2017-11-28T05:40:37.236Z,0
2017-11-28T05:41:37.168Z,0
2017-11-28T05:42:37.235Z,0
2017-11-28T05:43:37.165Z,0
2017-11-28T05:44:37.235Z,0
2017-11-28T05:45:37.170Z,0
2017-11-28T05:46:37.233Z,0
2017-11-28T05:47:37.166Z,0
2017-11-28T05:48:37.258Z,0
2017-11-28T05:49:37.171Z,0
2017-11-28T05:50:37.258Z,0
2017-11-28T05:51:37.237Z,0
2017-11-28T05:52:37.238Z,0
2017-11-28T05:53:37.244Z,0
2017-11-28T05:54:37.241Z,0
2017-11-28T05:55:37.148Z,0
2017-11-28T05:56:37.188Z,0
2017-11-28T05:57:37.172Z,0
2017-11-28T05:58:37.193Z,0
2017-11-28T05:59:37.225Z,0
2017-11-28T06:00:37.198Z,0
2017-11-28T06:01:37.128Z,0
2017-11-28T06:02:37.206Z,0
2017-11-28T06:03:37.175Z,0
2017-11-28T06:04:37.204Z,0
2017-11-28T06:05:37.245Z,0
2017-11-28T06:06:37.183Z,0
2017-11-28T06:07:37.246Z,0
2017-11-28T06:08:37.182Z,0
2017-11-28T06:09:37.254Z,0
2017-11-28T06:10:37.177Z,0
2017-11-28T06:11:37.254Z,0
2017-11-28T06:12:37.185Z,0
2017-11-28T06:13:37.263Z,0
2017-11-28T06:14:37.253Z,0
2017-11-28T06:15:37.194Z,0
2017-11-28T06:16:37.252Z,0
2017-11-28T06:17:37.189Z,0
2017-11-28T06:18:37.200Z,0
2017-11-28T06:19:37.261Z,0
2017-11-28T06:20:37.185Z,0
2017-11-28T06:21:37.253Z,0
2017-11-28T06:22:37.183Z,0
2017-11-28T06:23:37.276Z,0
2017-11-28T06:24:37.187Z,0
2017-11-28T06:25:37.256Z,0
2017-11-28T06:26:37.193Z,4
2017-11-28T06:27:37.191Z,4
2017-11-28T06:28:37.190Z,4
2017-11-28T06:29:37.314Z,8
2017-11-28T06:30:37.261Z,4
2017-11-28T06:31:37.199Z,4
2017-11-28T06:32:37.139Z,8
2017-11-28T06:33:37.191Z,8
2017-11-28T06:34:37.263Z,8
2017-11-28T06:35:37.264Z,12
2017-11-28T06:36:37.213Z,12
2017-11-28T06:37:37.204Z,16
2017-11-28T06:38:37.263Z,20
2017-11-28T06:39:37.265Z,24
2017-11-28T06:40:37.148Z,28
2017-11-28T06:41:37.149Z,32
2017-11-28T06:42:37.222Z,36
2017-11-28T06:43:37.259Z,40
2017-11-28T06:44:37.256Z,52
2017-11-28T06:45:37.201Z,60
2017-11-28T06:46:37.271Z,72
2017-11-28T06:47:37.210Z,80
2017-11-28T06:48:37.273Z,96
2017-11-28T06:49:37.209Z,116
2017-11-28T06:50:37.287Z,136
2017-11-28T06:51:37.203Z,156
2017-11-28T06:52:37.282Z,180
2017-11-28T06:53:37.209Z,204
2017-11-28T06:54:37.274Z,232
2017-11-28T06:55:37.212Z,260
2017-11-28T06:56:37.278Z,292
2017-11-28T06:57:37.206Z,328
2017-11-28T06:58:37.274Z,364
2017-11-28T06:59:37.212Z,396
2017-11-28T07:00:37.287Z,440
2017-11-28T07:01:37.210Z,480
2017-11-28T07:02:37.277Z,520
2017-11-28T07:03:37.215Z,556
2017-11-28T07:04:37.296Z,568
2017-11-28T07:05:37.238Z,568
2017-11-28T07:06:37.135Z,552
2017-11-28T07:07:37.134Z,556
2017-11-28T07:08:37.132Z,608
2017-11-28T07:09:37.178Z,632
2017-11-28T07:10:37.134Z,660
2017-11-28T07:11:37.132Z,748
2017-11-28T07:12:37.181Z,856
2017-11-28T07:13:37.135Z,916
2017-11-28T07:14:37.195Z,948
2017-11-28T07:15:37.242Z,988
2017-11-28T07:16:37.278Z,992
2017-11-28T07:17:37.237Z,1084
2017-11-28T07:18:37.173Z,1168
2017-11-28T07:19:37.155Z,1272
2017-11-28T07:20:37.194Z,1412
2017-11-28T07:21:37.289Z,1476
2017-11-28T07:22:37.190Z,1452
2017-11-28T07:23:37.277Z,1408
2017-11-28T07:24:37.158Z,1476
2017-11-28T07:25:37.248Z,1692
2017-11-28T07:26:37.296Z,1868
2017-11-28T07:27:37.223Z,1980
2017-11-28T07:28:37.297Z,2024
2017-11-28T07:29:37.226Z,2132
2017-11-28T07:30:37.296Z,2212
2017-11-28T07:31:37.229Z,2436
2017-11-28T07:32:37.297Z,2648
2017-11-28T07:33:37.299Z,2860
2017-11-28T07:34:37.226Z,3088
2017-11-28T07:35:37.195Z,3156
2017-11-28T07:36:37.261Z,3324
2017-11-28T07:37:37.155Z,3480
2017-11-28T07:38:37.285Z,3488
2017-11-28T07:39:37.223Z,3452
2017-11-28T07:40:37.285Z,3608
2017-11-28T07:41:37.212Z,3540
2017-11-28T07:42:37.178Z,3524
2017-11-28T07:43:37.239Z,3548
2017-11-28T07:44:37.228Z,3384
2017-11-28T07:45:37.245Z,3120
2017-11-28T07:46:37.306Z,2852
2017-11-28T07:47:37.234Z,2836
2017-11-28T07:48:37.305Z,2712
2017-11-28T07:49:37.235Z,2644
2017-11-28T07:50:37.309Z,2604
2017-11-28T07:51:37.248Z,2864
2017-11-28T07:52:37.196Z,3244
2017-11-28T07:53:37.312Z,3372
2017-11-28T07:54:37.241Z,3384
2017-11-28T07:55:37.187Z,3436
2017-11-28T07:56:37.236Z,3804
2017-11-28T07:57:37.277Z,3808
2017-11-28T07:58:37.242Z,3960
2017-11-28T07:59:37.190Z,4200
2017-11-28T08:00:37.310Z,4416
2017-11-28T08:01:37.298Z,4660
2017-11-28T08:02:37.282Z,4800
2017-11-28T08:03:37.192Z,4900
2017-11-28T08:04:37.266Z,5020
2017-11-28T08:05:37.245Z,5192
2017-11-28T08:06:37.319Z,5364
2017-11-28T08:07:37.243Z,5484
2017-11-28T08:08:37.320Z,5592
2017-11-28T08:09:37.244Z,5764
2017-11-28T08:10:37.318Z,5868
2017-11-28T08:11:37.247Z,5964
2017-11-28T08:12:37.321Z,6156
2017-11-28T08:13:37.320Z,6516
2017-11-28T08:14:37.250Z,6740
2017-11-28T08:15:37.320Z,7276
2017-11-28T08:16:37.234Z,8076
2017-11-28T08:17:37.247Z,7772
2017-11-28T08:18:37.271Z,8180
2017-11-28T08:19:37.318Z,8224
2017-11-28T08:20:37.251Z,7780
2017-11-28T08:21:37.353Z,7940
2017-11-28T08:22:37.237Z,8284
2017-11-28T08:23:37.271Z,8988
2017-11-28T08:24:37.326Z,10324
2017-11-28T08:25:37.327Z,11760
2017-11-28T08:26:37.252Z,12784
2017-11-28T08:27:37.329Z,15116
2017-11-28T08:28:37.325Z,16844
2017-11-28T08:29:37.339Z,17240
2017-11-28T08:30:37.264Z,17608
2017-11-28T08:31:37.329Z,18620
2017-11-28T08:32:37.262Z,22976
2017-11-28T08:33:37.338Z,22368
2017-11-28T08:34:37.333Z,22208
2017-11-28T08:35:37.333Z,19032
2017-11-28T08:36:37.238Z,17912
2017-11-28T08:37:37.304Z,16600
2017-11-28T08:38:37.241Z,15268
2017-11-28T08:39:37.279Z,14712
2017-11-28T08:40:37.235Z,15616
2017-11-28T08:41:37.325Z,17224
2017-11-28T08:42:37.329Z,16968
2017-11-28T08:43:37.327Z,15184
2017-11-28T08:44:37.311Z,13852
2017-11-28T08:45:37.281Z,12884
2017-11-28T08:46:37.342Z,12232
2017-11-28T08:47:37.267Z,12132
2017-11-28T08:48:37.340Z,13324
2017-11-28T08:49:37.267Z,15816
2017-11-28T08:50:37.342Z,17528
2017-11-28T08:51:37.349Z,18628
2017-11-28T08:52:37.270Z,19952
2017-11-28T08:53:37.344Z,20852
2017-11-28T08:54:37.379Z,20256
2017-11-28T08:55:37.286Z,20280
2017-11-28T08:56:37.334Z,19020
2017-11-28T08:57:37.319Z,18768
2017-11-28T08:58:37.309Z,20340
2017-11-28T08:59:37.218Z,22016
2017-11-28T09:00:37.346Z,22880
2017-11-28T09:01:37.270Z,23456
2017-11-28T09:02:37.223Z,24032
2017-11-28T09:03:37.263Z,25152
2017-11-28T09:04:37.228Z,26592
2017-11-28T09:05:37.360Z,27648
2017-11-28T09:06:37.353Z,28448
2017-11-28T09:07:37.361Z,24736
2017-11-28T09:08:37.355Z,22304
2017-11-28T09:09:37.281Z,24224
2017-11-28T09:10:37.366Z,27712
2017-11-28T09:11:37.308Z,31488
2017-11-28T09:12:37.356Z,32928
2017-11-28T09:13:37.291Z,32544
2017-11-28T09:14:37.283Z,32512
2017-11-28T09:15:37.358Z,32992
2017-11-28T09:16:37.225Z,34912
2017-11-28T09:17:37.323Z,34016
2017-11-28T09:18:37.321Z,34816
2017-11-28T09:19:37.319Z,36352
2017-11-28T09:20:37.226Z,45536
2017-11-28T09:21:37.307Z,43904
2017-11-28T09:22:37.250Z,31680
2017-11-28T09:23:37.292Z,31744
2017-11-28T09:24:37.232Z,29824
2017-11-28T09:25:37.323Z,30848
2017-11-28T09:26:37.286Z,31680
2017-11-28T09:27:37.368Z,39072
2017-11-28T09:28:37.301Z,32288
2017-11-28T09:29:37.369Z,50976
2017-11-28T09:30:37.297Z,29312
2017-11-28T09:31:37.371Z,31008
2017-11-28T09:32:37.297Z,23104
2017-11-28T09:33:37.373Z,28576
2017-11-28T09:34:37.386Z,33312
2017-11-28T09:36:37.351Z,31584
2017-11-28T09:37:37.299Z,26240
2017-11-28T09:38:37.331Z,29024
2017-11-28T09:39:37.296Z,35264
2017-11-28T09:40:37.324Z,37792
2017-11-28T09:41:37.318Z,29376
2017-11-28T09:42:37.262Z,19360
2017-11-28T09:44:37.325Z,13940
2017-11-28T09:45:37.336Z,13112
2017-11-28T09:46:37.375Z,11876
2017-11-28T09:47:37.303Z,11408
2017-11-28T09:48:37.378Z,13688
2017-11-28T09:49:37.303Z,18984
2017-11-28T09:50:37.377Z,18200
2017-11-28T09:51:37.307Z,21976
2017-11-28T09:52:37.380Z,24640
2017-11-28T09:53:37.383Z,27808
2017-11-28T09:54:37.305Z,25664
2017-11-28T09:55:37.379Z,39008
2017-11-28T09:56:37.312Z,28032
2017-11-28T09:57:37.381Z,28640
2017-11-28T09:58:37.311Z,28608
2017-11-28T09:59:37.384Z,21792
2017-11-28T10:00:37.320Z,16472
2017-11-28T10:01:37.356Z,13436
2017-11-28T10:02:37.387Z,11188
2017-11-28T10:03:37.323Z,11672
2017-11-28T10:04:37.385Z,14028
2017-11-28T10:05:37.311Z,16928
2017-11-28T10:06:37.354Z,16924
2017-11-28T10:07:37.272Z,15512
2017-11-28T10:08:37.273Z,14448
2017-11-28T10:09:37.292Z,12996
2017-11-28T10:10:37.357Z,10776
2017-11-28T10:11:37.354Z,10308
2017-11-28T10:12:37.351Z,10320
2017-11-28T10:13:37.273Z,9504
2017-11-28T10:14:37.373Z,9244
2017-11-28T10:15:37.261Z,9096
2017-11-28T10:16:37.394Z,8316
2017-11-28T10:17:37.330Z,8668
2017-11-28T10:18:37.398Z,8024
2017-11-28T10:19:37.333Z,7768
2017-11-28T10:20:37.438Z,8452
2017-11-28T10:21:37.322Z,9636
2017-11-28T10:22:37.398Z,12224
2017-11-28T10:23:37.398Z,14976
2017-11-28T10:24:37.323Z,17444
2017-11-28T10:25:37.402Z,20140
2017-11-28T10:26:37.377Z,20288
2017-11-28T10:27:37.280Z,19788
2017-11-28T10:28:37.307Z,19888
2017-11-28T10:29:37.400Z,20752
2017-11-28T10:30:37.285Z,22976
2017-11-28T10:31:37.281Z,21536
2017-11-28T10:32:37.390Z,22400
2017-11-28T10:33:37.316Z,19044
2017-11-28T10:34:37.283Z,16516
2017-11-28T10:35:37.369Z,14196
2017-11-28T10:36:37.334Z,16080
2017-11-28T10:37:37.343Z,16880
2017-11-28T10:38:37.410Z,16592
2017-11-28T10:39:37.365Z,18780
2017-11-28T10:40:37.407Z,21056
2017-11-28T10:41:37.355Z,27712
2017-11-28T10:42:37.412Z,19268
2017-11-28T10:43:37.333Z,18684
2017-11-28T10:44:37.411Z,21312
2017-11-28T10:45:37.338Z,25664
2017-11-28T10:46:37.422Z,31136
2017-11-28T10:47:37.344Z,29344
2017-11-28T10:48:37.414Z,27008
2017-11-28T10:49:37.344Z,26592
2017-11-28T10:50:37.415Z,31456
2017-11-28T10:51:37.339Z,27744
2017-11-28T10:52:37.419Z,22240
2017-11-28T10:53:37.352Z,24480
2017-11-28T10:54:37.417Z,25120
2017-11-28T10:55:37.347Z,24224
2017-11-28T10:56:37.455Z,27200
2017-11-28T10:57:37.321Z,32832
2017-11-28T10:58:37.364Z,33152
2017-11-28T10:59:37.387Z,31296
2017-11-28T11:00:37.419Z,36960
2017-11-28T11:01:37.346Z,38656
2017-11-28T11:02:37.368Z,39488
2017-11-28T11:03:37.408Z,38592
2017-11-28T11:04:37.374Z,36992
2017-11-28T11:05:37.411Z,37472
2017-11-28T11:06:37.424Z,37408
2017-11-28T11:07:37.360Z,35040
2017-11-28T11:08:37.430Z,44960
2017-11-28T11:09:37.358Z,44960
2017-11-28T11:10:37.428Z,42976
2017-11-28T11:11:37.358Z,56096
2017-11-28T11:12:37.430Z,49856
2017-11-28T11:13:37.358Z,50528
2017-11-28T11:14:37.357Z,49280
2017-11-28T11:15:37.318Z,39776
2017-11-28T11:16:37.406Z,38336
2017-11-28T11:17:37.298Z,39488
2017-11-28T11:18:37.319Z,49408
2017-11-28T11:19:37.409Z,45440
2017-11-28T11:20:37.365Z,39456
2017-11-28T11:21:37.339Z,51392
2017-11-28T11:22:37.413Z,40704
2017-11-28T11:23:37.325Z,40064
2017-11-28T11:24:37.300Z,34016
2017-11-28T11:25:37.387Z,40768
2017-11-28T11:26:37.439Z,29568
2017-11-28T11:27:37.380Z,25696
2017-11-28T11:28:37.440Z,23552
2017-11-28T11:29:37.368Z,23648
2017-11-28T11:30:37.445Z,25568
2017-11-28T11:31:37.372Z,20144
2017-11-28T11:32:37.441Z,16096
2017-11-28T11:33:37.396Z,12412
2017-11-28T11:34:37.372Z,9660
2017-11-28T11:35:37.382Z,7792
2017-11-28T11:36:37.442Z,6988
2017-11-28T11:37:37.370Z,6940
2017-11-28T11:38:37.369Z,6368
2017-11-28T11:39:37.444Z,6236
2017-11-28T11:40:37.383Z,5740
2017-11-28T11:41:37.374Z,5384
2017-11-28T11:42:37.455Z,5452
2017-11-28T11:43:37.373Z,5708
2017-11-28T11:44:37.338Z,6112
2017-11-28T11:45:37.375Z,6324
2017-11-28T11:46:37.448Z,6324
2017-11-28T11:47:37.384Z,6604
2017-11-28T11:48:37.450Z,7004
2017-11-28T11:49:37.382Z,6712
2017-11-28T11:50:37.451Z,5336
2017-11-28T11:51:37.453Z,5064
2017-11-28T11:52:37.384Z,4848
2017-11-28T11:53:37.454Z,5336
2017-11-28T11:54:37.381Z,6104
2017-11-28T11:55:37.455Z,6612
2017-11-28T11:56:37.362Z,6584
2017-11-28T11:57:37.416Z,5924
2017-11-28T11:58:37.447Z,5272
2017-11-28T11:59:37.401Z,4940
2017-11-28T12:00:37.450Z,4440
2017-11-28T12:01:37.451Z,4192
2017-11-28T12:02:37.426Z,4276
2017-11-28T12:03:37.407Z,4928
2017-11-28T12:04:37.459Z,6072
2017-11-28T12:05:37.430Z,6672
2017-11-28T12:06:37.466Z,6404
2017-11-28T12:07:37.386Z,6120
2017-11-28T12:08:37.463Z,6472
2017-11-28T12:09:37.461Z,8076
2017-11-28T12:10:37.391Z,9192
2017-11-28T12:11:37.464Z,10216
2017-11-28T12:12:37.393Z,11632
2017-11-28T12:13:37.465Z,12172
2017-11-28T12:14:37.415Z,12196
2017-11-28T12:15:37.467Z,12108
2017-11-28T12:16:37.396Z,12016
2017-11-28T12:17:37.478Z,11824
2017-11-28T12:18:37.395Z,11700
2017-11-28T12:19:37.470Z,11364
2017-11-28T12:20:37.406Z,11696
2017-11-28T12:21:37.469Z,12280
2017-11-28T12:22:37.402Z,12816
2017-11-28T12:23:37.396Z,12532
2017-11-28T12:24:37.479Z,11476
2017-11-28T12:25:37.494Z,10648
2017-11-28T12:26:37.402Z,10160
2017-11-28T12:27:37.474Z,9724
2017-11-28T12:28:37.404Z,8872
2017-11-28T12:29:37.477Z,8040
2017-11-28T12:30:37.477Z,7728
2017-11-28T12:31:37.444Z,7568
2017-11-28T12:32:37.513Z,7504
2017-11-28T12:33:37.404Z,7832
2017-11-28T12:34:37.482Z,7768
2017-11-28T12:35:37.405Z,7564
2017-11-28T12:36:37.481Z,7264
2017-11-28T12:37:37.407Z,6880
2017-11-28T12:38:37.482Z,6628
2017-11-28T12:39:37.405Z,7372
2017-11-28T12:40:37.481Z,8600
2017-11-28T12:41:37.482Z,9460
2017-11-28T12:42:37.414Z,10232
2017-11-28T12:43:37.484Z,10348
2017-11-28T12:44:37.410Z,9008
2017-11-28T12:45:37.481Z,7196
2017-11-28T12:46:37.414Z,6012
2017-11-28T12:47:37.486Z,5708
2017-11-28T12:48:37.420Z,5868
2017-11-28T12:49:37.486Z,5980
2017-11-28T12:50:37.415Z,6148
2017-11-28T12:51:37.488Z,6120
2017-11-28T12:52:37.410Z,6772
2017-11-28T12:53:37.489Z,8284
2017-11-28T12:54:37.420Z,9372
2017-11-28T12:55:37.491Z,9124
2017-11-28T12:56:37.423Z,8764
2017-11-28T12:57:37.500Z,8600
2017-11-28T12:58:37.420Z,8352
2017-11-28T12:59:37.495Z,8092
2017-11-28T13:00:37.425Z,7640
2017-11-28T13:01:37.492Z,8028
2017-11-28T13:02:37.427Z,8368
2017-11-28T13:03:37.499Z,8648
2017-11-28T13:04:37.433Z,9404
2017-11-28T13:05:37.496Z,10092
2017-11-28T13:06:37.462Z,10612
2017-11-28T13:07:37.490Z,11292
2017-11-28T13:08:37.406Z,11820
2017-11-28T13:09:37.494Z,12248
2017-11-28T13:10:37.462Z,12896
2017-11-28T13:11:37.427Z,14172
2017-11-28T13:12:37.376Z,15396
2017-11-28T13:13:37.415Z,15464
2017-11-28T13:14:37.488Z,14576
2017-11-28T13:15:37.445Z,13316
2017-11-28T13:16:37.385Z,12584
2017-11-28T13:17:37.429Z,13020
2017-11-28T13:18:37.390Z,13552
2017-11-28T13:19:37.436Z,13264
2017-11-28T13:20:37.466Z,12616
2017-11-28T13:21:37.437Z,12148
2017-11-28T13:22:37.484Z,11896
2017-11-28T13:23:37.342Z,11892
2017-11-28T13:24:37.465Z,11720
2017-11-28T13:25:37.469Z,11484
2017-11-28T13:26:37.470Z,11184
2017-11-28T13:27:37.577Z,10664
2017-11-28T13:28:37.395Z,10060
2017-11-28T13:29:37.419Z,9412
2017-11-28T13:30:37.365Z,8896
2017-11-28T13:31:37.487Z,8696
2017-11-28T13:32:37.435Z,9096
2017-11-28T13:33:37.411Z,9440
2017-11-28T13:34:37.576Z,9068
2017-11-28T13:35:37.491Z,8452
2017-11-28T13:36:37.453Z,7656
2017-11-28T13:37:37.518Z,7216
2017-11-28T13:38:37.447Z,7308
2017-11-28T13:39:37.519Z,7680
2017-11-28T13:40:37.449Z,7748
2017-11-28T13:41:37.448Z,7432
2017-11-28T13:42:37.517Z,6952
2017-11-28T13:43:37.462Z,6756
2017-11-28T13:44:37.522Z,6944
2017-11-28T13:45:37.448Z,6864
2017-11-28T13:46:37.519Z,6300
2017-11-28T13:47:37.445Z,5584
2017-11-28T13:48:37.452Z,4984
2017-11-28T13:49:37.522Z,4748
2017-11-28T13:50:37.457Z,4788
2017-11-28T13:51:37.522Z,5084
2017-11-28T13:52:37.453Z,5316
2017-11-28T13:53:37.525Z,5280
2017-11-28T13:54:37.455Z,5036